createdAt,value
2022-08-02T00:00:45.420Z,3.08
2022-08-02T00:03:49.874Z,3.05
2022-08-02T00:06:55.259Z,3.10
2022-08-02T00:09:57.963Z,2.87
2022-08-02T00:13:00.677Z,2.92
2022-08-02T00:16:04.771Z,4.18
2022-08-02T00:19:07.088Z,3.00
2022-08-02T00:22:10.170Z,3.30
2022-08-02T00:25:12.811Z,3.03
2022-08-02T00:28:15.377Z,3.37
2022-08-02T00:31:17.747Z,3.10
2022-08-02T00:34:28.833Z,2.73
2022-08-02T00:37:39.100Z,2.75
2022-08-02T00:40:46.773Z,2.50
2022-08-02T00:43:51.596Z,3.10
2022-08-02T00:46:54.172Z,2.87
2022-08-02T00:49:57.639Z,2.80
2022-08-02T00:53:02.750Z,3.37
2022-08-02T00:56:05.306Z,2.90
2022-08-02T00:59:07.977Z,2.90
2022-08-02T01:02:10.720Z,2.97
2022-08-02T01:05:14.208Z,3.37
2022-08-02T01:08:16.578Z,2.97
2022-08-02T01:11:19.415Z,2.80
2022-08-02T01:14:24.423Z,2.90
2022-08-02T01:17:37.139Z,3.37
2022-08-02T01:21:05.943Z,3.55
2022-08-02T01:24:30.919Z,3.28
2022-08-02T01:28:12.236Z,3.12
2022-08-02T01:31:25.776Z,3.20
2022-08-02T01:34:37.351Z,3.05
2022-08-02T01:37:44.758Z,3.03
2022-08-02T01:40:49.484Z,3.20
2022-08-02T01:43:58.006Z,3.33
2022-08-02T01:47:11.507Z,3.30
2022-08-02T01:50:17.828Z,3.13
2022-08-02T01:53:22.106Z,3.25
2022-08-02T01:56:24.843Z,3.08
2022-08-02T01:59:29.791Z,3.15
2022-08-02T02:02:38.778Z,2.70
2022-08-02T02:05:46.811Z,2.90
2022-08-02T02:08:51.290Z,2.90
2022-08-02T02:12:08.684Z,3.40
2022-08-02T02:15:15.997Z,3.12
2022-08-02T02:18:24.208Z,3.28
2022-08-02T02:21:26.696Z,3.20
2022-08-02T02:24:30.661Z,3.37
2022-08-02T02:27:37.006Z,3.70
2022-08-02T02:30:48.878Z,3.40
2022-08-02T02:34:04.442Z,3.15
2022-08-02T02:37:14.282Z,3.50
2022-08-02T02:40:18.060Z,3.12
2022-08-02T02:43:30.303Z,3.10
2022-08-02T02:46:35.010Z,3.05
2022-08-02T02:49:40.139Z,3.20
2022-08-02T02:52:44.365Z,3.45
2022-08-02T02:56:02.273Z,3.33
2022-08-02T02:59:07.275Z,3.50
2022-08-02T03:02:11.141Z,3.30
2022-08-02T03:05:15.706Z,3.20
2022-08-02T03:08:18.399Z,3.53
2022-08-02T03:11:22.888Z,8.25
2022-08-02T03:14:25.864Z,6.10
2022-08-02T03:17:46.385Z,5.07
2022-08-02T03:20:51.928Z,3.70
2022-08-02T03:23:54.229Z,3.92
2022-08-02T03:26:59.179Z,3.97
2022-08-02T03:30:01.616Z,3.72
2022-08-02T03:33:04.302Z,3.53
2022-08-02T03:36:15.116Z,3.70
2022-08-02T03:39:23.857Z,3.30
2022-08-02T03:42:32.075Z,3.42
2022-08-02T03:45:38.604Z,3.42
2022-08-02T03:48:41.839Z,3.37
2022-08-02T03:51:48.479Z,3.50
2022-08-02T03:54:52.995Z,7.60
2022-08-02T03:58:16.973Z,6.22
2022-08-02T04:01:19.436Z,4.00
2022-08-02T04:04:22.137Z,3.63
2022-08-02T04:08:36.410Z,3.25
2022-08-02T04:11:25.416Z,3.60
2022-08-02T04:14:28.392Z,3.55
2022-08-02T04:17:43.849Z,3.60
2022-08-02T04:20:49.092Z,3.50
2022-08-02T04:23:58.265Z,3.40
2022-08-02T04:27:50.903Z,3.78
2022-08-02T04:30:35.863Z,3.50
2022-08-02T04:33:48.914Z,3.35
2022-08-02T04:36:52.177Z,3.85
2022-08-02T04:39:54.627Z,3.70
2022-08-02T04:42:57.285Z,4.43
2022-08-02T04:46:02.723Z,3.55
2022-08-02T04:49:06.377Z,3.30
2022-08-02T04:52:09.170Z,3.05
2022-08-02T04:55:11.945Z,3.53
2022-08-02T04:58:38.794Z,3.62
2022-08-02T05:01:37.362Z,3.60
2022-08-02T05:04:43.722Z,3.53
2022-08-02T05:07:46.352Z,3.60
2022-08-02T05:10:48.760Z,3.75
2022-08-02T05:13:57.660Z,3.73
2022-08-02T05:17:01.666Z,3.75
2022-08-02T05:20:07.253Z,3.72
2022-08-02T05:23:09.595Z,4.15
2022-08-02T05:26:12.239Z,3.75
2022-08-02T05:29:14.652Z,3.78
2022-08-02T05:32:17.581Z,3.60
2022-08-02T05:35:22.876Z,3.67
2022-08-02T05:38:26.424Z,3.47
2022-08-02T05:41:28.838Z,3.97
2022-08-02T05:44:31.346Z,3.60
2022-08-02T05:47:36.206Z,3.75
2022-08-02T05:50:44.701Z,3.60
2022-08-02T05:53:59.234Z,3.22
2022-08-02T05:57:06.892Z,3.58
2022-08-02T06:00:14.741Z,3.05
2022-08-02T06:03:24.551Z,3.30
2022-08-02T06:06:32.358Z,3.17
2022-08-02T06:09:36.086Z,3.50
2022-08-02T06:15:55.921Z,2.87
2022-08-02T06:18:59.455Z,3.53
2022-08-02T06:22:33.904Z,3.47
2022-08-02T06:25:48.264Z,3.50
2022-08-02T06:28:55.348Z,2.97
2022-08-02T06:31:58.926Z,3.20
2022-08-02T06:35:04.588Z,3.20
2022-08-02T06:38:08.510Z,3.10
2022-08-02T06:41:14.806Z,2.92
2022-08-02T06:44:45.864Z,2.83
2022-08-02T06:47:40.817Z,2.83
2022-08-02T06:50:44.256Z,2.60
2022-08-02T06:53:47.243Z,2.78
2022-08-02T06:56:49.612Z,2.75
2022-08-02T06:59:52.579Z,2.80
2022-08-02T07:02:55.025Z,2.70
2022-08-02T07:05:57.801Z,2.78
2022-08-02T07:09:19.971Z,3.00
2022-08-02T07:12:23.259Z,2.85
2022-08-02T07:15:25.619Z,2.87
2022-08-02T07:18:28.191Z,2.25
2022-08-02T07:21:56.762Z,3.10
2022-08-02T07:24:53.971Z,2.45
2022-08-02T07:27:56.508Z,3.70
2022-08-02T07:30:59.183Z,2.78
2022-08-02T07:34:03.326Z,3.00
2022-08-02T07:37:07.404Z,2.90
2022-08-02T07:40:15.126Z,2.80
2022-08-02T07:43:22.269Z,2.83
2022-08-02T07:46:25.610Z,2.42
2022-08-02T07:49:31.519Z,3.20
2022-08-02T07:52:33.881Z,3.00
2022-08-02T07:55:40.387Z,3.00
2022-08-02T07:58:43.105Z,3.00
2022-08-02T08:01:46.137Z,2.90
2022-08-02T08:07:57.080Z,2.80
2022-08-02T08:10:59.626Z,2.72
2022-08-02T08:14:02.105Z,2.70
2022-08-02T08:17:06.446Z,2.67
2022-08-02T08:20:12.810Z,2.50
2022-08-02T08:23:18.000Z,3.15
2022-08-02T08:26:21.070Z,2.72
2022-08-02T08:32:27.084Z,2.30
2022-08-02T08:35:29.676Z,2.53
2022-08-02T08:38:31.956Z,2.25
2022-08-02T08:41:37.427Z,2.20
2022-08-02T08:44:39.765Z,2.10
2022-08-02T08:47:43.068Z,2.47
2022-08-02T08:50:51.451Z,2.40
2022-08-02T08:53:54.531Z,2.50
2022-08-02T09:00:00.781Z,2.35
2022-08-02T09:03:09.457Z,2.20
2022-08-02T09:06:11.997Z,2.15
2022-08-02T09:09:14.324Z,2.00
2022-08-02T09:15:25.275Z,1.90
2022-08-02T09:18:37.190Z,1.92
2022-08-02T09:21:40.351Z,2.10
2022-08-02T09:24:43.171Z,1.85
2022-08-02T09:30:50.489Z,1.98
2022-08-02T09:33:55.561Z,2.00
2022-08-02T09:36:58.123Z,2.05
2022-08-02T09:40:02.802Z,1.87
2022-08-02T09:43:07.441Z,1.80
2022-08-02T09:46:17.038Z,1.95
2022-08-02T09:49:20.203Z,2.00
2022-08-02T09:52:37.085Z,1.90
2022-08-02T09:55:56.352Z,2.20
2022-08-02T09:59:06.220Z,1.60
2022-08-02T10:02:16.877Z,1.85
2022-08-02T10:05:21.352Z,1.77
2022-08-02T10:08:25.530Z,1.90
2022-08-02T10:11:29.001Z,1.80
2022-08-02T10:14:33.909Z,2.00
2022-08-02T10:17:37.673Z,1.62
2022-08-02T10:20:44.811Z,2.00
2022-08-02T10:23:50.263Z,1.70
2022-08-02T10:26:54.167Z,1.90
2022-08-02T10:30:00.290Z,1.70
2022-08-02T10:33:04.305Z,1.70
2022-08-02T10:36:10.079Z,1.60
2022-08-02T10:39:13.875Z,1.90
2022-08-02T10:42:42.227Z,1.55
2022-08-02T10:45:50.673Z,1.92
2022-08-02T10:52:42.027Z,1.70
2022-08-02T10:55:46.911Z,1.60
2022-08-02T10:59:28.419Z,1.95
2022-08-02T11:02:46.757Z,1.60
2022-08-02T11:06:04.849Z,1.62
2022-08-02T11:09:32.033Z,1.70
2022-08-02T11:13:00.855Z,1.50
2022-08-02T11:16:11.339Z,1.50
2022-08-02T11:19:14.214Z,1.55
2022-08-02T11:22:25.252Z,1.52
2022-08-02T11:25:32.049Z,1.23
2022-08-02T11:28:41.127Z,1.40
2022-08-02T11:31:46.505Z,1.30
2022-08-02T11:34:52.382Z,1.40
2022-08-02T11:37:54.708Z,1.50
2022-08-02T11:40:57.623Z,1.55
2022-08-02T11:43:59.951Z,1.55
2022-08-02T11:50:10.349Z,1.50
2022-08-02T11:53:14.688Z,1.60
2022-08-02T11:56:25.281Z,1.70
2022-08-02T11:59:28.019Z,1.40
2022-08-02T12:02:32.413Z,1.67
2022-08-02T12:09:19.074Z,1.48
2022-08-02T12:12:21.867Z,1.50
2022-08-02T12:15:44.609Z,1.60
2022-08-02T12:19:28.319Z,1.80
2022-08-02T12:22:30.619Z,1.60
2022-08-02T12:25:34.415Z,1.67
2022-08-02T12:28:39.690Z,1.70
2022-08-02T12:31:56.294Z,1.83
2022-08-02T12:35:31.033Z,1.50
2022-08-02T12:38:33.583Z,1.60
2022-08-02T12:41:36.864Z,1.80
2022-08-02T12:44:59.636Z,2.05
2022-08-02T12:48:03.806Z,1.60
2022-08-02T12:51:19.430Z,1.60
2022-08-02T12:54:30.809Z,1.65
2022-08-02T12:57:54.956Z,2.12
2022-08-02T13:04:09.505Z,1.85
2022-08-02T13:07:15.518Z,2.22
2022-08-02T13:13:20.429Z,1.40
2022-08-02T13:16:30.771Z,1.60
2022-08-02T13:19:33.756Z,1.40
2022-08-02T13:22:38.052Z,1.50
2022-08-02T13:25:54.817Z,1.87
2022-08-02T13:28:57.696Z,2.20
2022-08-02T13:32:00.177Z,1.87
2022-08-02T13:35:03.165Z,1.87
2022-08-02T13:38:07.384Z,2.25
2022-08-02T13:41:10.027Z,1.80
2022-08-02T13:44:12.314Z,2.10
2022-08-02T13:47:14.921Z,1.70
2022-08-02T13:50:30.353Z,1.62
2022-08-02T13:53:32.970Z,1.60
2022-08-02T13:56:37.661Z,1.75
2022-08-02T13:59:56.191Z,1.50
2022-08-02T14:03:00.206Z,1.23
2022-08-02T14:06:06.978Z,1.60
2022-08-02T14:09:09.222Z,1.23
2022-08-02T14:12:18.283Z,1.10
2022-08-02T14:15:24.854Z,1.02
2022-08-02T14:18:32.816Z,1.00
2022-08-02T14:21:46.574Z,1.20
2022-08-02T14:24:50.327Z,1.20
2022-08-02T14:27:52.921Z,1.00
2022-08-02T14:33:57.532Z,1.77
2022-08-02T14:37:00.043Z,1.02
2022-08-02T14:40:02.297Z,1.10
2022-08-02T14:43:05.094Z,0.90
2022-08-02T14:46:07.326Z,1.20
2022-08-02T14:49:10.733Z,1.33
2022-08-02T14:52:14.564Z,1.10
2022-08-02T14:55:17.558Z,1.30
2022-08-02T14:58:19.939Z,1.02
2022-08-02T15:01:26.116Z,0.98
2022-08-02T15:04:28.802Z,1.30
2022-08-02T15:07:41.336Z,1.00
2022-08-02T15:10:46.640Z,0.93
2022-08-02T15:13:49.239Z,0.95
2022-08-02T15:16:58.107Z,1.00
2022-08-02T15:20:24.445Z,0.90
2022-08-02T15:23:24.957Z,1.03
2022-08-02T15:26:37.556Z,0.77
2022-08-02T15:29:40.280Z,0.82
2022-08-02T15:35:56.005Z,0.90
2022-08-02T15:38:58.666Z,1.00
2022-08-02T15:42:03.759Z,1.00
2022-08-02T15:45:08.138Z,1.27
2022-08-02T15:48:17.581Z,1.00
2022-08-02T15:51:20.442Z,1.23
2022-08-02T15:54:26.930Z,1.40
2022-08-02T15:57:29.663Z,0.90
2022-08-02T16:00:32.032Z,1.02
2022-08-02T16:03:34.636Z,1.05
2022-08-02T16:06:36.995Z,0.90
2022-08-02T16:09:39.801Z,1.00
2022-08-02T16:12:42.565Z,1.10
2022-08-02T16:18:49.552Z,1.37
2022-08-02T16:21:52.878Z,0.93
2022-08-02T16:28:12.366Z,1.10
2022-08-02T16:31:14.782Z,1.00
2022-08-02T16:34:17.530Z,1.25
2022-08-02T16:37:19.777Z,1.30
2022-08-02T16:40:22.492Z,1.02
2022-08-02T16:43:24.827Z,1.20
2022-08-02T16:46:30.130Z,1.17
2022-08-02T16:50:04.547Z,1.30
2022-08-02T16:52:57.282Z,1.67
2022-08-02T16:56:00.669Z,1.37
2022-08-02T16:59:04.096Z,1.40
2022-08-02T17:02:11.352Z,1.35
2022-08-02T17:05:16.738Z,1.30
2022-08-02T17:11:23.805Z,1.50
2022-08-02T17:14:26.920Z,1.20
2022-08-02T17:17:33.882Z,1.48
2022-08-02T17:20:36.857Z,1.80
2022-08-02T17:24:05.189Z,1.33
2022-08-02T17:27:02.612Z,1.40
2022-08-02T17:30:05.820Z,1.52
2022-08-02T17:33:14.767Z,2.80
2022-08-02T17:36:18.264Z,1.90
2022-08-02T17:42:25.827Z,1.75
2022-08-02T17:49:11.200Z,3.22
2022-08-02T17:52:50.672Z,1.95
2022-08-02T17:55:42.408Z,1.45
2022-08-02T17:58:53.818Z,1.62
2022-08-02T18:02:01.187Z,1.70
2022-08-02T18:05:11.740Z,2.30
2022-08-02T18:08:21.333Z,2.08
2022-08-02T18:11:52.524Z,2.20
2022-08-02T18:14:49.074Z,2.28
2022-08-02T18:17:52.115Z,1.60
2022-08-02T18:20:58.414Z,1.45
2022-08-02T18:24:19.351Z,1.30
2022-08-02T18:27:26.461Z,1.60
2022-08-02T18:30:29.144Z,1.80
2022-08-02T18:33:57.053Z,1.55
2022-08-02T18:36:54.601Z,1.42
2022-08-02T18:39:56.907Z,1.48
2022-08-02T18:43:00.149Z,1.60
2022-08-02T18:46:15.901Z,1.67
2022-08-02T18:49:19.150Z,1.73
2022-08-02T18:52:31.051Z,1.50
2022-08-02T18:56:00.323Z,2.22
2022-08-02T18:58:57.496Z,1.73
2022-08-02T19:02:00.079Z,1.25
2022-08-02T19:05:02.467Z,1.60
2022-08-02T19:08:09.480Z,1.50
2022-08-02T19:11:11.726Z,1.40
2022-08-02T19:14:19.057Z,1.40
2022-08-02T19:17:55.410Z,1.37
2022-08-02T19:20:49.324Z,1.30
2022-08-02T19:23:54.258Z,1.70
2022-08-02T19:26:57.761Z,1.20
2022-08-02T19:30:07.653Z,1.27
2022-08-02T19:33:10.757Z,1.30
2022-08-02T19:36:30.230Z,1.67
2022-08-02T19:39:39.173Z,1.50
2022-08-02T19:44:23.314Z,1.45
2022-08-02T19:46:07.203Z,1.80
2022-08-02T19:49:39.139Z,1.55
2022-08-02T19:52:42.096Z,1.33
2022-08-02T20:02:35.960Z,2.20
2022-08-02T20:05:38.863Z,1.90
2022-08-02T20:12:05.972Z,1.60
2022-08-02T20:15:14.480Z,1.58
2022-08-02T20:18:26.590Z,1.05
2022-08-02T20:21:36.397Z,1.10
2022-08-02T20:24:39.977Z,1.30
2022-08-02T20:27:50.971Z,1.48
2022-08-02T20:30:55.000Z,1.60
2022-08-02T20:36:59.686Z,1.50
2022-08-02T20:40:23.235Z,1.60
2022-08-02T20:43:31.060Z,1.30
2022-08-02T20:46:33.843Z,1.37
2022-08-02T20:49:57.616Z,1.50
2022-08-02T20:53:04.069Z,1.30
2022-08-02T20:56:12.677Z,1.70
2022-08-02T20:59:16.285Z,1.40
2022-08-02T21:02:20.123Z,1.40
2022-08-02T21:05:26.868Z,1.50
2022-08-02T21:08:48.197Z,1.30
2022-08-02T21:11:51.140Z,1.60
2022-08-02T21:14:53.744Z,1.70
2022-08-02T21:18:02.102Z,1.37
2022-08-02T21:21:10.705Z,1.40
2022-08-02T21:24:13.078Z,1.35
2022-08-02T21:27:52.869Z,1.52
2022-08-02T21:30:56.856Z,2.20
2022-08-02T21:34:00.388Z,1.70
2022-08-02T21:40:13.442Z,1.77
2022-08-02T21:43:15.983Z,1.55
2022-08-02T21:46:18.591Z,1.87
2022-08-02T21:49:27.150Z,2.42
2022-08-02T21:52:52.283Z,1.95
2022-08-02T21:56:00.911Z,2.17
2022-08-02T21:59:16.369Z,1.40
2022-08-02T22:02:22.096Z,1.70
2022-08-02T22:05:37.481Z,1.90
2022-08-02T22:08:42.171Z,1.60
2022-08-02T22:11:44.780Z,1.60
2022-08-02T22:14:54.766Z,1.70
2022-08-02T22:18:00.138Z,2.78
2022-08-02T22:21:02.849Z,2.30
2022-08-02T22:24:19.393Z,1.90
2022-08-02T22:28:15.834Z,1.80
2022-08-02T22:30:52.877Z,1.80
2022-08-02T22:34:11.530Z,1.60
2022-08-02T22:38:15.099Z,5.37
2022-08-02T22:40:36.726Z,3.10
2022-08-02T22:43:39.604Z,1.83
2022-08-02T22:46:42.321Z,2.10
2022-08-02T22:53:09.571Z,1.70
2022-08-02T22:56:13.686Z,1.55
2022-08-02T22:58:40.414Z,2.28
2022-08-02T22:58:54.653Z,1.95
2022-08-02T22:59:06.357Z,2.30
2022-08-02T23:02:25.096Z,2.00
2022-08-02T23:08:29.878Z,1.50
2022-08-02T23:11:32.221Z,1.77
2022-08-02T23:14:34.709Z,2.00
2022-08-02T23:17:56.507Z,2.00
2022-08-02T23:20:59.056Z,1.60
2022-08-02T23:24:01.766Z,1.90
2022-08-02T23:27:04.352Z,1.60
2022-08-02T23:30:07.352Z,2.30
2022-08-02T23:33:09.863Z,1.77
2022-08-02T23:36:12.084Z,1.75
2022-08-02T23:39:14.632Z,1.87
2022-08-02T23:42:17.032Z,1.80
2022-08-02T23:45:19.674Z,1.92
2022-08-02T23:48:22.178Z,1.90
2022-08-02T23:51:24.710Z,2.00
2022-08-02T23:54:27.185Z,1.77
2022-08-02T23:57:29.817Z,1.83
